AirNav   Everest Fuels
 
 993 users online  

KNFE Fentress Naval Auxiliary Field
Fentress, Virginia, USA

GOING TO FENTRESS?


FAA INFORMATION EFFECTIVE 10 OCTOBER 2019

Location

FAA Identifier: NFE
Lat/Long: 36-41-31.3310N 076-08-04.4305W
36-41.522183N 076-08.073842W
36.6920364,-76.1345640
(estimated)
Elevation: 16 ft. / 5 m (estimated)
Variation: 09W (1985)
Time zone: UTC -4 (UTC -5 during Standard Time)
Zip code: 23322

Airport Operations

Airport use: Private use. Permission required prior to landing
Activation date: 08/1943
Control tower: no
ARTCC: WASHINGTON CENTER
FSS: LEESBURG FLIGHT SERVICE STATION
Attendance: UNATNDD
Segmented circle: no
Lights: RY LGTS OPERATED BY CRASH CREW DURING SCHEDULED OPNS.

Airport Communications

OCEANA APPROACH: 123.9
OCEANA DEPARTURE: 123.9
WX AWOS-3 at CPK (9 nm W): 123.675 (757-204-4290)
WX ASOS at NTU (9 nm NE): PHONE DSN 433-3619 or 757-433-3619
WX ASOS at ORF (13 nm N): PHONE 757-460-9348
WX AWOS-3PT at PVG (16 nm W): 118.375 (757-465-2175)
WX AWOS-3 at ONX (18 nm S): 119.775 (252-453-8939)

Nearby radio navigation aids

VOR radial/distance  VOR name  Freq  Var
ORFr172/12.4NORFOLK VORTAC116.9007W
ECGr011/26.1ELIZABETH CITY VOR/DME112.5007W
CCVr199/39.9CAPE CHARLES VORTAC112.2010W

 
NDB name  Hdg/Dist  Freq  Var  ID
INGLE157/10.532909WOR --- .-.
WOODVILLE027/26.925410WLLW .-.. .-.. .--

Airport Services

Runway Information

Runway 5/23

Dimensions: 8004 x 175 ft. / 2440 x 53 m
Surface: asphalt
Weight bearing capacity: 
PCN 40 /R/C/W/T
Runway edge lights: low intensity
RUNWAY 5  RUNWAY 23
Latitude: 36-41.014033N36-42.030333N
Longitude: 076-08.595917W076-07.551767W
Elevation: 14.5 ft.14.2 ft.
Traffic pattern: leftleft
Runway heading: 049 magnetic, 040 true228 magnetic, 219 true
Touchdown point: yes, no lightsyes, no lights

Airport Ownership and Management from official FAA records

Ownership: U.S. Navy
Owner: US NAVY
OCEANOGRAPHIC OFC - CODE 3142
WASHINGTON, DC 20373

Additional Remarks

FOR CD CTC WASHINGTON ARTCC AT 703-771-3587.

Instrument Procedures

There are no published instrument procedures at KNFE.

Some nearby airports with instrument procedures:

KCPK - Chesapeake Regional Airport (9 nm W)
KNTU - Oceana Naval Air Station (Apollo Soucek Field) (9 nm NE)
KORF - Norfolk International Airport (13 nm N)
KPVG - Hampton Roads Executive Airport (16 nm W)
KNGU - Norfolk Naval Station (Chambers Field) (16 nm NW)
KONX - Currituck County Regional Airport (18 nm S)
 
Loc | Ops | Rwys | IFR | FBO | Links
Com | Nav | Svcs | Stats | Notes
Area around KNFE (Fentress Naval Auxiliary Field)
 
Road maps at: MapQuest Bing Google
 
Aerial photo
WARNING: Photo may not be current or correct
Aerial photo of KNFE (Fentress Naval Auxiliary Field)
Do you have a better or more recent aerial photo of Fentress Naval Auxiliary Field that you would like to share? If so, please send us your photo.

 
Sectional chart

 
Airport distance calculator
Flying to Fentress Naval Auxiliary Field? Find the distance to fly.

From to KNFE

Sunrise and sunset
Times for 21-Oct-2019
 Local
(UTC-4)
 Zulu
(UTC)
Morning civil twilight06:5210:52
Sunrise07:1811:18
Sunset18:2022:20
Evening civil twilight18:4622:46

Current date and time
Zulu (UTC)  21-Oct-2019 23:14:40
Local (UTC-4)  21-Oct-2019 19:14:40
 
METAR
KNFE 212256Z AUTO 02003KT 10SM OVC012 17/13 A3008 RMK AO2 SLP189 T01670133
KCPK 
9nm W 
212255Z AUTO 04003KT 10SM OVC012 15/14 A3009 RMK AO2 T01480135
KNTU 
9nm NE 
212256Z 00000KT 10SM OVC014 16/13 A3007 RMK AO2 SLP186 T01560133
KORF 
13nm N 
212251Z 00000KT 10SM OVC012 16/13 A3008 RMK AO2 SLP185 T01610133
KNGU 
15nm NW 
212259Z 00000KT 10SM OVC012 16/13 A3010 RMK AO2 SLP191 T01560133
KONX 
18nm S 
212255Z AUTO 00000KT 10SM OVC013 15/14 A3009 RMK AO2 T01540142
TAF
KNTU 
9nm NE 
2115/2215 36010KT 9999 OVC010 QNH3001INS TEMPO 2115/2121 9000 -DZ BR OVC007 FM212100 03008KT 9999 OVC010 QNH3001INS FM220100 VRB06KT 9999 OVC015 QNH3002INS T18/2119Z T13/2209Z FN20008
KORF 
13nm N 
211733Z 2118/2218 35006KT P6SM OVC010 FM212100 03006KT P6SM OVC020 FM220800 VRB03KT P6SM OVC008 FM221500 16009KT P6SM BKN025
KNGU 
15nm NW 
2119/2215 33007KT 9999 OVC011 QNH3002INS FM212300 05006KT 9999 BKN015 BKN250 QNH3005INS FM221200 VRB04KT 9999 BKN015 BKN150 OVC250 QNH3000INS T16/2119Z T14/2210Z AMD 1920 FN20004
NOTAMs
Click for the latest NOTAMs
NOTAMs are issued by the DoD/FAA and will open in a separate window not controlled by AirNav.

 

 
 

Would you like to see your business listed on this page?

 If your business provides an interesting product or service to pilots, flight crews, aircraft, or users of the Fentress Naval Auxiliary Field, you should consider listing it here.  To start the listing process, click on the button below
 
Add a business
 

Other Pages about Fentress Naval Auxiliary Field

Update a link
 
Copyright © AirNav, LLC. All rights reserved. Privacy Policy  Contact